createdAt,value
2023-02-05T00:00:17.737Z,1029.36
2023-02-05T00:01:17.727Z,1029.35
2023-02-05T00:02:17.753Z,1029.33
2023-02-05T00:03:17.754Z,1029.30
2023-02-05T00:04:17.702Z,1029.23
2023-02-05T00:05:17.699Z,1029.24
2023-02-05T00:06:17.691Z,1029.21
2023-02-05T00:07:17.682Z,1029.21
2023-02-05T00:08:17.665Z,1029.19
2023-02-05T00:09:17.660Z,1029.18
2023-02-05T00:10:17.661Z,1029.16
2023-02-05T00:11:17.673Z,1029.17
2023-02-05T00:12:17.646Z,1029.18
2023-02-05T00:13:17.635Z,1029.10
2023-02-05T00:14:17.626Z,1029.09
2023-02-05T00:15:17.615Z,1029.08
2023-02-05T00:16:17.647Z,1029.00
2023-02-05T00:17:17.607Z,1029.00
2023-02-05T00:18:17.596Z,1028.95
2023-02-05T00:19:17.583Z,1028.96
2023-02-05T00:20:17.581Z,1028.96
2023-02-05T00:21:17.563Z,1028.91
2023-02-05T00:22:17.561Z,1028.87
2023-02-05T00:23:17.551Z,1028.84
2023-02-05T00:24:17.538Z,1028.84
2023-02-05T00:25:17.532Z,1028.84
2023-02-05T00:26:17.524Z,1028.85
2023-02-05T00:27:17.537Z,1028.84
2023-02-05T00:28:17.543Z,1028.81
2023-02-05T00:29:17.504Z,1028.79
2023-02-05T00:30:17.501Z,1028.80
2023-02-05T00:31:17.603Z,1028.76
2023-02-05T00:32:17.485Z,1028.73
2023-02-05T00:33:17.475Z,1028.70
2023-02-05T00:34:17.482Z,1028.71
2023-02-05T00:35:17.445Z,1028.66
2023-02-05T00:36:17.450Z,1028.63
2023-02-05T00:37:17.434Z,1028.65
2023-02-05T00:38:17.430Z,1028.66
2023-02-05T00:39:17.441Z,1028.70
2023-02-05T00:40:17.411Z,1028.68
2023-02-05T00:41:17.405Z,1028.68
2023-02-05T00:42:17.404Z,1028.63
2023-02-05T00:43:17.384Z,1028.61
2023-02-05T00:44:17.387Z,1028.60
2023-02-05T00:45:17.378Z,1028.62
2023-02-05T00:46:17.415Z,1028.63
2023-02-05T00:47:17.356Z,1028.59
2023-02-05T00:48:17.350Z,1028.55
2023-02-05T00:49:17.348Z,1028.52
2023-02-05T00:50:17.330Z,1028.48
2023-02-05T00:51:17.332Z,1028.48
2023-02-05T00:52:17.320Z,1028.47
2023-02-05T00:53:17.307Z,1028.45
2023-02-05T00:54:17.321Z,1028.48
2023-02-05T00:55:17.292Z,1028.46
2023-02-05T00:56:17.301Z,1028.47
2023-02-05T00:57:17.281Z,1028.47
2023-02-05T00:58:17.276Z,1028.45
2023-02-05T00:59:17.258Z,1028.48
2023-02-05T01:00:17.248Z,1028.48
2023-02-05T01:01:17.286Z,1028.50
2023-02-05T01:02:17.265Z,1028.48
2023-02-05T01:03:17.223Z,1028.49
2023-02-05T01:04:17.224Z,1028.51
2023-02-05T01:05:17.213Z,1028.52
2023-02-05T01:06:17.219Z,1028.50
2023-02-05T01:07:17.195Z,1028.45
2023-02-05T01:08:17.191Z,1028.48
2023-02-05T01:09:17.176Z,1028.43
2023-02-05T01:10:17.170Z,1028.42
2023-02-05T01:11:17.165Z,1028.41
2023-02-05T01:12:17.166Z,1028.46
2023-02-05T01:13:18.147Z,1028.44
2023-02-05T01:14:17.144Z,1028.44
2023-02-05T01:15:17.137Z,1028.33
2023-02-05T01:16:17.269Z,1028.30
2023-02-05T01:17:17.110Z,1028.24
2023-02-05T01:18:17.111Z,1028.22
2023-02-05T01:19:17.105Z,1028.19
2023-02-05T01:20:17.094Z,1028.25
2023-02-05T01:21:17.083Z,1028.23
2023-02-05T01:22:17.068Z,1028.29
2023-02-05T01:23:17.100Z,1028.29
2023-02-05T01:24:17.060Z,1028.24
2023-02-05T01:25:17.048Z,1028.24
2023-02-05T01:26:17.071Z,1028.25
2023-02-05T01:27:17.036Z,1028.26
2023-02-05T01:28:17.096Z,1028.28
2023-02-05T01:29:17.032Z,1028.29
2023-02-05T01:30:17.021Z,1028.24
2023-02-05T01:31:17.137Z,1028.21
2023-02-05T01:32:16.994Z,1028.22
2023-02-05T01:33:17.020Z,1028.15
2023-02-05T01:34:16.987Z,1028.17
2023-02-05T01:35:16.970Z,1028.15
2023-02-05T01:36:16.965Z,1028.12
2023-02-05T01:37:16.945Z,1028.07
2023-02-05T01:38:16.949Z,1028.04
2023-02-05T01:39:16.935Z,1028.06
2023-02-05T01:40:16.933Z,1028.08
2023-02-05T01:41:16.926Z,1028.12
2023-02-05T01:42:16.909Z,1028.08
2023-02-05T01:43:16.901Z,1028.11
2023-02-05T01:44:16.903Z,1028.07
2023-02-05T01:45:16.878Z,1028.03
2023-02-05T01:46:16.903Z,1028.03
2023-02-05T01:47:16.869Z,1028.06
2023-02-05T01:48:16.860Z,1028.08
2023-02-05T01:49:16.852Z,1028.06
2023-02-05T01:50:16.840Z,1028.14
2023-02-05T01:51:16.831Z,1028.12
2023-02-05T01:52:16.830Z,1028.12
2023-02-05T01:53:16.815Z,1028.13
2023-02-05T01:54:16.799Z,1028.14
2023-02-05T01:55:16.798Z,1028.08
2023-02-05T01:56:16.787Z,1028.05
2023-02-05T01:57:16.788Z,1028.08
2023-02-05T01:58:16.768Z,1028.00
2023-02-05T01:59:16.757Z,1028.00
2023-02-05T02:00:16.760Z,1027.96
2023-02-05T02:01:16.782Z,1027.92
2023-02-05T02:02:16.733Z,1027.95
2023-02-05T02:03:16.739Z,1027.89
2023-02-05T02:04:16.723Z,1027.91
2023-02-05T02:05:16.762Z,1027.92
2023-02-05T02:06:16.714Z,1027.88
2023-02-05T02:07:16.726Z,1027.92
2023-02-05T02:08:16.682Z,1028.01
2023-02-05T02:09:16.694Z,1027.98
2023-02-05T02:10:16.679Z,1028.02
2023-02-05T02:11:16.674Z,1028.03
2023-02-05T02:12:16.662Z,1028.05
2023-02-05T02:13:16.647Z,1028.04
2023-02-05T02:14:16.655Z,1028.05
2023-02-05T02:15:16.630Z,1028.02
2023-02-05T02:16:16.637Z,1027.98
2023-02-05T02:17:16.632Z,1027.98
2023-02-05T02:18:16.632Z,1028.02
2023-02-05T02:19:16.591Z,1028.04
2023-02-05T02:20:16.588Z,1028.00
2023-02-05T02:21:16.580Z,1028.01
2023-02-05T02:22:16.582Z,1028.04
2023-02-05T02:23:16.580Z,1028.04
2023-02-05T02:24:16.566Z,1028.00
2023-02-05T02:25:16.570Z,1027.93
2023-02-05T02:26:16.545Z,1027.85
2023-02-05T02:27:16.529Z,1027.78
2023-02-05T02:28:16.531Z,1027.71
2023-02-05T02:29:16.511Z,1027.74
2023-02-05T02:30:16.513Z,1027.73
2023-02-05T02:31:16.576Z,1027.75
2023-02-05T02:32:16.493Z,1027.75
2023-02-05T02:33:16.492Z,1027.77
2023-02-05T02:34:16.463Z,1027.76
2023-02-05T02:35:16.497Z,1027.74
2023-02-05T02:36:16.460Z,1027.74
2023-02-05T02:37:16.458Z,1027.72
2023-02-05T02:38:16.451Z,1027.75
2023-02-05T02:39:16.432Z,1027.71
2023-02-05T02:40:16.414Z,1027.73
2023-02-05T02:41:16.428Z,1027.76
2023-02-05T02:42:16.408Z,1027.80
2023-02-05T02:43:16.401Z,1027.81
2023-02-05T02:44:16.405Z,1027.76
2023-02-05T02:45:16.380Z,1027.76
2023-02-05T02:46:16.405Z,1027.80
2023-02-05T02:47:16.372Z,1027.82
2023-02-05T02:48:16.360Z,1027.82
2023-02-05T02:49:16.353Z,1027.87
2023-02-05T02:50:16.354Z,1027.93
2023-02-05T02:51:16.335Z,1027.92
2023-02-05T02:52:16.325Z,1027.95
2023-02-05T02:53:16.321Z,1027.93
2023-02-05T02:54:16.315Z,1027.98
2023-02-05T02:55:16.301Z,1027.99
2023-02-05T02:56:16.306Z,1028.04
2023-02-05T02:57:16.287Z,1028.06
2023-02-05T02:58:16.281Z,1028.01
2023-02-05T02:59:16.271Z,1027.97
2023-02-05T03:00:16.276Z,1027.94
2023-02-05T03:01:16.264Z,1027.96
2023-02-05T03:02:16.247Z,1027.95
2023-02-05T03:03:16.261Z,1028.04
2023-02-05T03:04:16.245Z,1028.01
2023-02-05T03:05:16.221Z,1028.13
2023-02-05T03:06:16.215Z,1028.11
2023-02-05T03:07:16.216Z,1028.17
2023-02-05T03:08:16.195Z,1028.17
2023-02-05T03:09:16.198Z,1028.13
2023-02-05T03:10:16.184Z,1028.15
2023-02-05T03:11:16.176Z,1028.12
2023-02-05T03:12:16.182Z,1028.07
2023-02-05T03:13:16.170Z,1028.04
2023-02-05T03:14:16.144Z,1028.03
2023-02-05T03:15:16.139Z,1027.99
2023-02-05T03:16:16.171Z,1027.93
2023-02-05T03:17:16.122Z,1027.92
2023-02-05T03:18:16.112Z,1027.93
2023-02-05T03:19:16.114Z,1027.97
2023-02-05T03:20:16.105Z,1027.96
2023-02-05T03:21:16.083Z,1028.02
2023-02-05T03:22:16.083Z,1028.08
2023-02-05T03:23:16.071Z,1028.08
2023-02-05T03:24:16.068Z,1028.09
2023-02-05T03:25:16.052Z,1028.07
2023-02-05T03:26:16.046Z,1028.09
2023-02-05T03:27:16.046Z,1028.04
2023-02-05T03:28:16.091Z,1028.06
2023-02-05T03:29:16.029Z,1028.06
2023-02-05T03:30:16.004Z,1028.01
2023-02-05T03:31:16.090Z,1027.98
2023-02-05T03:32:16.002Z,1027.95
2023-02-05T03:33:15.995Z,1027.96
2023-02-05T03:34:15.981Z,1027.92
2023-02-05T03:35:15.976Z,1027.88
2023-02-05T03:36:15.968Z,1027.85
2023-02-05T03:37:15.955Z,1027.75
2023-02-05T03:38:15.937Z,1027.75
2023-02-05T03:39:15.946Z,1027.76
2023-02-05T03:40:15.934Z,1027.77
2023-02-05T03:41:15.943Z,1027.79
2023-02-05T03:42:15.913Z,1027.79
2023-02-05T03:43:15.890Z,1027.73
2023-02-05T03:44:15.899Z,1027.73
2023-02-05T03:45:15.876Z,1027.69
2023-02-05T03:46:15.914Z,1027.73
2023-02-05T03:47:15.863Z,1027.76
2023-02-05T03:48:15.863Z,1027.75
2023-02-05T03:49:15.867Z,1027.70
2023-02-05T03:50:15.853Z,1027.70
2023-02-05T03:51:15.836Z,1027.69
2023-02-05T03:52:15.813Z,1027.69
2023-02-05T03:53:15.812Z,1027.71
2023-02-05T03:54:15.804Z,1027.71
2023-02-05T03:55:15.805Z,1027.71
2023-02-05T03:56:15.781Z,1027.69
2023-02-05T03:57:15.771Z,1027.69
2023-02-05T03:58:15.773Z,1027.69
2023-02-05T03:59:15.769Z,1027.68
2023-02-05T04:00:15.752Z,1027.66
2023-02-05T04:01:15.870Z,1027.64
2023-02-05T04:02:15.779Z,1027.65
2023-02-05T04:03:15.722Z,1027.70
2023-02-05T04:04:15.711Z,1027.77
2023-02-05T04:05:15.696Z,1027.76
2023-02-05T04:06:15.711Z,1027.67
2023-02-05T04:07:15.687Z,1027.68
2023-02-05T04:08:15.684Z,1027.62
2023-02-05T04:09:15.659Z,1027.58
2023-02-05T04:10:15.668Z,1027.67
2023-02-05T04:11:15.656Z,1027.64
2023-02-05T04:12:15.636Z,1027.66
2023-02-05T04:13:15.644Z,1027.66
2023-02-05T04:14:15.635Z,1027.67
2023-02-05T04:15:15.628Z,1027.66
2023-02-05T04:16:15.677Z,1027.69
2023-02-05T04:17:15.599Z,1027.69
2023-02-05T04:18:15.588Z,1027.70
2023-02-05T04:19:15.579Z,1027.75
2023-02-05T04:20:15.575Z,1027.78
2023-02-05T04:21:15.560Z,1027.74
2023-02-05T04:22:15.567Z,1027.77
2023-02-05T04:23:15.570Z,1027.77
2023-02-05T04:24:15.618Z,1027.76
2023-02-05T04:25:15.528Z,1027.74
2023-02-05T04:26:15.538Z,1027.71
2023-02-05T04:27:15.529Z,1027.72
2023-02-05T04:28:15.608Z,1027.75
2023-02-05T04:29:15.492Z,1027.78
2023-02-05T04:30:15.504Z,1027.77
2023-02-05T04:31:15.586Z,1027.79
2023-02-05T04:32:15.487Z,1027.82
2023-02-05T04:33:15.468Z,1027.79
2023-02-05T04:34:15.463Z,1027.79
2023-02-05T04:35:15.459Z,1027.79
2023-02-05T04:36:15.487Z,1027.80
2023-02-05T04:37:15.446Z,1027.77
2023-02-05T04:38:15.421Z,1027.78
2023-02-05T04:39:15.427Z,1027.74
2023-02-05T04:40:15.409Z,1027.71
2023-02-05T04:41:15.402Z,1027.74
2023-02-05T04:42:15.400Z,1027.74
2023-02-05T04:43:15.382Z,1027.72
2023-02-05T04:44:15.383Z,1027.75
2023-02-05T04:45:15.375Z,1027.77
2023-02-05T04:46:15.407Z,1027.81
2023-02-05T04:47:15.352Z,1027.82
2023-02-05T04:48:15.359Z,1027.86
2023-02-05T04:49:15.333Z,1027.87
2023-02-05T04:50:15.318Z,1027.92
2023-02-05T04:51:15.328Z,1027.88
2023-02-05T04:52:15.313Z,1027.88
2023-02-05T04:53:15.302Z,1027.95
2023-02-05T04:54:15.294Z,1027.93
2023-02-05T04:55:15.283Z,1027.89
2023-02-05T04:56:15.286Z,1027.91
2023-02-05T04:57:15.279Z,1027.92
2023-02-05T04:58:15.253Z,1027.89
2023-02-05T04:59:15.247Z,1027.90
2023-02-05T05:00:15.233Z,1027.90
2023-02-05T05:01:15.411Z,1027.84
2023-02-05T05:02:15.269Z,1027.87
2023-02-05T05:03:15.216Z,1027.90
2023-02-05T05:04:15.227Z,1027.89
2023-02-05T05:05:15.195Z,1027.90
2023-02-05T05:06:15.207Z,1027.87
2023-02-05T05:07:15.194Z,1027.85
2023-02-05T05:08:15.173Z,1027.83
2023-02-05T05:09:15.181Z,1027.79
2023-02-05T05:10:15.170Z,1027.77
2023-02-05T05:11:15.152Z,1027.81
2023-02-05T05:12:15.143Z,1027.85
2023-02-05T05:13:15.128Z,1027.91
2023-02-05T05:14:15.130Z,1027.92
2023-02-05T05:15:15.110Z,1027.94
2023-02-05T05:16:15.164Z,1027.97
2023-02-05T05:17:15.102Z,1027.91
2023-02-05T05:18:15.090Z,1027.86
2023-02-05T05:19:15.324Z,1027.83
2023-02-05T05:20:15.078Z,1027.78
2023-02-05T05:21:15.083Z,1027.76
2023-02-05T05:22:15.067Z,1027.74
2023-02-05T05:23:15.040Z,1027.74
2023-02-05T05:24:15.041Z,1027.70
2023-02-05T05:25:15.038Z,1027.71
2023-02-05T05:26:15.019Z,1027.70
2023-02-05T05:27:15.012Z,1027.66
2023-02-05T05:28:15.092Z,1027.65
2023-02-05T05:29:15.000Z,1027.65
2023-02-05T05:30:15.013Z,1027.65
2023-02-05T05:31:15.009Z,1027.69
2023-02-05T05:32:15.024Z,1027.65
2023-02-05T05:33:14.952Z,1027.68
2023-02-05T05:34:14.966Z,1027.68
2023-02-05T05:35:14.951Z,1027.61
2023-02-05T05:36:14.945Z,1027.62
2023-02-05T05:37:14.931Z,1027.58
2023-02-05T05:38:14.922Z,1027.66
2023-02-05T05:39:14.914Z,1027.67
2023-02-05T05:40:14.903Z,1027.78
2023-02-05T05:41:14.901Z,1027.79
2023-02-05T05:42:14.891Z,1027.84
2023-02-05T05:43:14.873Z,1027.82
2023-02-05T05:44:14.871Z,1027.87
2023-02-05T05:45:14.860Z,1027.81
2023-02-05T05:46:14.887Z,1027.84
2023-02-05T05:47:14.843Z,1027.85
2023-02-05T05:48:14.833Z,1027.83
2023-02-05T05:49:14.835Z,1027.83
2023-02-05T05:50:14.838Z,1027.85
2023-02-05T05:51:14.809Z,1027.86
2023-02-05T05:52:14.805Z,1027.83
2023-02-05T05:53:14.791Z,1027.84
2023-02-05T05:54:14.791Z,1027.79
2023-02-05T05:55:14.769Z,1027.75
2023-02-05T05:56:14.770Z,1027.77
2023-02-05T05:57:14.767Z,1027.85
2023-02-05T05:58:14.743Z,1027.87
2023-02-05T05:59:14.757Z,1027.78
2023-02-05T06:00:14.736Z,1027.75
2023-02-05T06:01:14.720Z,1027.69
2023-02-05T06:02:14.744Z,1027.68
2023-02-05T06:03:14.716Z,1027.69
2023-02-05T06:04:14.793Z,1027.71
2023-02-05T06:05:14.687Z,1027.71
2023-02-05T06:06:14.680Z,1027.70
2023-02-05T06:07:14.672Z,1027.69
2023-02-05T06:08:14.657Z,1027.63
2023-02-05T06:09:14.653Z,1027.59
2023-02-05T06:10:14.640Z,1027.49
2023-02-05T06:11:14.635Z,1027.46
2023-02-05T06:12:14.618Z,1027.46
2023-02-05T06:13:14.609Z,1027.52
2023-02-05T06:14:14.606Z,1027.53
2023-02-05T06:15:14.592Z,1027.55
2023-02-05T06:16:14.701Z,1027.56
2023-02-05T06:17:14.582Z,1027.48
2023-02-05T06:18:14.567Z,1027.48
2023-02-05T06:19:14.557Z,1027.47
2023-02-05T06:20:14.549Z,1027.44
2023-02-05T06:21:14.543Z,1027.49
2023-02-05T06:22:14.525Z,1027.51
2023-02-05T06:23:14.530Z,1027.44
2023-02-05T06:24:14.521Z,1027.46
2023-02-05T06:25:14.509Z,1027.45
2023-02-05T06:26:14.497Z,1027.44
2023-02-05T06:27:14.485Z,1027.47
2023-02-05T06:28:14.496Z,1027.49
2023-02-05T06:29:14.462Z,1027.47
2023-02-05T06:30:14.471Z,1027.42
2023-02-05T06:31:14.590Z,1027.48
2023-02-05T06:32:14.451Z,1027.46
2023-02-05T06:33:14.444Z,1027.50
2023-02-05T06:34:14.432Z,1027.51
2023-02-05T06:35:14.418Z,1027.50
2023-02-05T06:36:14.416Z,1027.54
2023-02-05T06:37:14.405Z,1027.54
2023-02-05T06:38:14.405Z,1027.54
2023-02-05T06:39:14.384Z,1027.53
2023-02-05T06:40:14.380Z,1027.55
2023-02-05T06:41:14.380Z,1027.54
2023-02-05T06:42:14.355Z,1027.54
2023-02-05T06:43:14.354Z,1027.50
2023-02-05T06:44:14.342Z,1027.47
2023-02-05T06:45:14.336Z,1027.51
2023-02-05T06:46:14.348Z,1027.55
2023-02-05T06:47:14.333Z,1027.57
2023-02-05T06:48:14.309Z,1027.56
2023-02-05T06:49:14.307Z,1027.57
2023-02-05T06:50:14.291Z,1027.55
2023-02-05T06:51:14.289Z,1027.52
2023-02-05T06:52:14.276Z,1027.58
2023-02-05T06:53:14.256Z,1027.67
2023-02-05T06:54:14.263Z,1027.65
2023-02-05T06:55:14.251Z,1027.65
2023-02-05T06:56:14.246Z,1027.61
2023-02-05T06:57:14.239Z,1027.57
2023-02-05T06:58:14.225Z,1027.55
2023-02-05T06:59:14.232Z,1027.60
2023-02-05T07:00:14.214Z,1027.55
2023-02-05T07:01:14.208Z,1027.54
2023-02-05T07:02:14.186Z,1027.52
2023-02-05T07:03:14.190Z,1027.49
2023-02-05T07:04:14.175Z,1027.51
2023-02-05T07:05:14.178Z,1027.53
2023-02-05T07:06:14.166Z,1027.51
2023-02-05T07:07:14.148Z,1027.50
2023-02-05T07:08:14.138Z,1027.50
2023-02-05T07:09:14.149Z,1027.49
2023-02-05T07:10:14.146Z,1027.52
2023-02-05T07:11:14.144Z,1027.52
2023-02-05T07:12:14.104Z,1027.47
2023-02-05T07:13:14.111Z,1027.52
2023-02-05T07:14:14.095Z,1027.48
2023-02-05T07:15:14.100Z,1027.47
2023-02-05T07:16:14.148Z,1027.46
2023-02-05T07:17:14.069Z,1027.49
2023-02-05T07:18:14.059Z,1027.44
2023-02-05T07:19:14.054Z,1027.46
2023-02-05T07:20:14.065Z,1027.45
2023-02-05T07:21:14.033Z,1027.43
2023-02-05T07:22:14.029Z,1027.46
2023-02-05T07:23:14.025Z,1027.41
2023-02-05T07:24:14.011Z,1027.40
2023-02-05T07:25:14.018Z,1027.40
2023-02-05T07:26:13.999Z,1027.41
2023-02-05T07:27:13.988Z,1027.38
2023-02-05T07:28:14.009Z,1027.36
2023-02-05T07:29:14.058Z,1027.41
2023-02-05T07:30:13.965Z,1027.44
2023-02-05T07:31:14.080Z,1027.40
2023-02-05T07:32:13.972Z,1027.40
2023-02-05T07:33:13.953Z,1027.37
2023-02-05T07:34:13.921Z,1027.39
2023-02-05T07:35:13.932Z,1027.42
2023-02-05T07:36:13.911Z,1027.40
2023-02-05T07:37:13.906Z,1027.41
2023-02-05T07:38:13.888Z,1027.41
2023-02-05T07:39:13.907Z,1027.40
2023-02-05T07:40:13.869Z,1027.40
2023-02-05T07:41:13.870Z,1027.39
2023-02-05T07:42:13.855Z,1027.42
2023-02-05T07:43:13.843Z,1027.44
2023-02-05T07:44:13.843Z,1027.40
2023-02-05T07:45:13.826Z,1027.38
2023-02-05T07:46:13.835Z,1027.40
2023-02-05T07:47:13.810Z,1027.41
2023-02-05T07:48:13.810Z,1027.40
2023-02-05T07:49:13.789Z,1027.42
2023-02-05T07:50:13.792Z,1027.39
2023-02-05T07:51:13.814Z,1027.34
2023-02-05T07:52:13.779Z,1027.32
2023-02-05T07:53:13.761Z,1027.34
2023-02-05T07:54:13.764Z,1027.30
2023-02-05T07:55:13.793Z,1027.32
2023-02-05T07:56:13.760Z,1027.26
2023-02-05T07:57:13.722Z,1027.27
2023-02-05T07:58:13.729Z,1027.24
2023-02-05T07:59:13.715Z,1027.25
2023-02-05T08:00:13.704Z,1027.25
2023-02-05T08:01:13.735Z,1027.25
2023-02-05T08:02:13.701Z,1027.25
2023-02-05T08:03:13.689Z,1027.25
2023-02-05T08:04:13.704Z,1027.25
2023-02-05T08:05:13.653Z,1027.27
2023-02-05T08:06:13.652Z,1027.23
2023-02-05T08:07:13.649Z,1027.22
2023-02-05T08:08:13.631Z,1027.18
2023-02-05T08:09:13.625Z,1027.20
2023-02-05T08:10:13.615Z,1027.25
2023-02-05T08:11:13.613Z,1027.19
2023-02-05T08:12:13.599Z,1027.18
2023-02-05T08:13:13.583Z,1027.18
2023-02-05T08:14:13.591Z,1027.18
2023-02-05T08:15:13.579Z,1027.18
2023-02-05T08:16:13.577Z,1027.10
2023-02-05T08:17:13.552Z,1027.19
2023-02-05T08:18:13.548Z,1027.21
2023-02-05T08:19:13.553Z,1027.19
2023-02-05T08:20:13.551Z,1027.15
2023-02-05T08:21:13.526Z,1027.12
2023-02-05T08:22:13.513Z,1027.08
2023-02-05T08:23:13.502Z,1027.09
2023-02-05T08:24:13.495Z,1027.09
2023-02-05T08:25:13.493Z,1027.08
2023-02-05T08:26:13.488Z,1027.07
2023-02-05T08:27:13.481Z,1027.09
2023-02-05T08:28:13.496Z,1027.12
2023-02-05T08:29:13.456Z,1027.11
2023-02-05T08:30:13.479Z,1027.12
2023-02-05T08:31:13.516Z,1027.13
2023-02-05T08:32:13.429Z,1027.19
2023-02-05T08:33:13.452Z,1027.11
2023-02-05T08:34:13.411Z,1027.15
2023-02-05T08:35:13.437Z,1027.11
2023-02-05T08:36:13.401Z,1027.16
2023-02-05T08:37:13.391Z,1027.17
2023-02-05T08:38:13.388Z,1027.18
2023-02-05T08:39:13.377Z,1027.17
2023-02-05T08:40:13.360Z,1027.15
2023-02-05T08:41:13.351Z,1027.13
2023-02-05T08:42:13.353Z,1027.11
2023-02-05T08:43:13.343Z,1027.10
2023-02-05T08:44:13.333Z,1027.12
2023-02-05T08:45:13.320Z,1027.11
2023-02-05T08:46:13.359Z,1027.11
2023-02-05T08:47:13.304Z,1027.09
2023-02-05T08:48:13.302Z,1027.05
2023-02-05T08:49:13.286Z,1027.05
2023-02-05T08:50:13.285Z,1027.06
2023-02-05T08:51:13.272Z,1027.14
2023-02-05T08:52:13.263Z,1027.09
2023-02-05T08:53:13.254Z,1027.11
2023-02-05T08:54:13.509Z,1027.07
2023-02-05T08:55:13.247Z,1027.08
2023-02-05T08:56:13.249Z,1027.10
2023-02-05T08:57:13.222Z,1027.10
2023-02-05T08:58:13.222Z,1027.09
2023-02-05T08:59:13.221Z,1027.09
2023-02-05T09:00:13.193Z,1027.05
2023-02-05T09:01:13.251Z,1027.04
2023-02-05T09:02:13.183Z,1026.98
2023-02-05T09:03:13.166Z,1026.98
2023-02-05T09:04:13.186Z,1027.01
2023-02-05T09:05:13.156Z,1026.97
2023-02-05T09:06:13.153Z,1026.98
2023-02-05T09:07:13.138Z,1027.02
2023-02-05T09:08:13.137Z,1026.93
2023-02-05T09:09:13.116Z,1027.00
2023-02-05T09:10:13.113Z,1026.98
2023-02-05T09:11:13.101Z,1026.94
2023-02-05T09:12:13.099Z,1026.90
2023-02-05T09:13:13.081Z,1026.83
2023-02-05T09:14:13.076Z,1026.89
2023-02-05T09:15:13.065Z,1026.87
2023-02-05T09:16:13.062Z,1026.86
2023-02-05T09:17:13.060Z,1026.87
2023-02-05T09:18:13.032Z,1026.85
2023-02-05T09:19:13.042Z,1026.84
2023-02-05T09:20:13.036Z,1026.87
2023-02-05T09:21:13.051Z,1026.82
2023-02-05T09:22:13.012Z,1026.84
2023-02-05T09:23:13.002Z,1026.84
2023-02-05T09:24:12.994Z,1026.79
2023-02-05T09:25:12.982Z,1026.71
2023-02-05T09:26:12.972Z,1026.69
2023-02-05T09:27:12.976Z,1026.73
2023-02-05T09:28:12.972Z,1026.67
2023-02-05T09:29:12.950Z,1026.68
2023-02-05T09:30:12.972Z,1026.71
2023-02-05T09:31:13.056Z,1026.73
2023-02-05T09:32:12.941Z,1026.73
2023-02-05T09:33:12.908Z,1026.73
2023-02-05T09:34:12.904Z,1026.69
2023-02-05T09:35:12.904Z,1026.72
2023-02-05T09:36:12.897Z,1026.74
2023-02-05T09:37:12.868Z,1026.77
2023-02-05T09:38:12.860Z,1026.79
2023-02-05T09:39:21.748Z,1026.80
2023-02-05T09:40:20.660Z,1026.76
2023-02-05T09:41:12.863Z,1026.75
2023-02-05T09:42:12.842Z,1026.79
2023-02-05T09:43:12.830Z,1026.86
2023-02-05T09:44:12.806Z,1026.80
2023-02-05T09:45:12.833Z,1026.87
2023-02-05T09:46:12.832Z,1026.79
2023-02-05T09:47:12.785Z,1026.84
2023-02-05T09:48:12.787Z,1026.88
2023-02-05T09:49:12.781Z,1026.82
2023-02-05T09:50:12.767Z,1026.89
2023-02-05T09:51:12.752Z,1027.00
2023-02-05T09:52:12.748Z,1026.99
2023-02-05T09:53:12.746Z,1027.03
2023-02-05T09:54:12.724Z,1027.00
2023-02-05T09:55:12.722Z,1027.05
2023-02-05T09:56:12.714Z,1027.03
2023-02-05T09:57:12.703Z,1027.16
2023-02-05T09:58:12.692Z,1027.12
2023-02-05T09:59:12.673Z,1027.06
2023-02-05T10:00:12.680Z,1027.12
2023-02-05T10:01:12.683Z,1027.15
2023-02-05T10:02:12.649Z,1027.20
2023-02-05T10:03:12.671Z,1027.17
2023-02-05T10:04:12.661Z,1027.27
2023-02-05T10:05:12.618Z,1027.20
2023-02-05T10:06:12.613Z,1027.17
2023-02-05T10:07:12.612Z,1027.24
2023-02-05T10:08:12.585Z,1027.18
2023-02-05T10:09:12.602Z,1027.21
2023-02-05T10:10:12.574Z,1027.23
2023-02-05T10:11:12.570Z,1027.23
2023-02-05T10:12:12.558Z,1027.25
2023-02-05T10:13:12.544Z,1027.24
2023-02-05T10:14:12.535Z,1027.28
2023-02-05T10:15:12.533Z,1027.24
2023-02-05T10:16:12.553Z,1027.28
2023-02-05T10:17:12.509Z,1027.31
2023-02-05T10:18:12.512Z,1027.34
2023-02-05T10:19:12.495Z,1027.33
2023-02-05T10:20:12.484Z,1027.38
2023-02-05T10:21:12.481Z,1027.32
2023-02-05T10:22:12.465Z,1027.33
2023-02-05T10:23:12.455Z,1027.39
2023-02-05T10:24:12.438Z,1027.39
2023-02-05T10:25:12.436Z,1027.45
2023-02-05T10:26:12.473Z,1027.36
2023-02-05T10:27:12.420Z,1027.34
2023-02-05T10:28:12.433Z,1027.43
2023-02-05T10:29:12.400Z,1027.33
2023-02-05T10:30:12.399Z,1027.40
2023-02-05T10:31:12.509Z,1027.40
2023-02-05T10:32:12.373Z,1027.33
2023-02-05T10:33:12.381Z,1027.39
2023-02-05T10:34:12.357Z,1027.36
2023-02-05T10:35:12.367Z,1027.45
2023-02-05T10:36:12.343Z,1027.41
2023-02-05T10:37:12.331Z,1027.42
2023-02-05T10:38:12.313Z,1027.40
2023-02-05T10:39:12.318Z,1027.38
2023-02-05T10:40:12.300Z,1027.48
2023-02-05T10:41:12.297Z,1027.42
2023-02-05T10:42:12.294Z,1027.41
2023-02-05T10:43:12.272Z,1027.40
2023-02-05T10:44:12.268Z,1027.45
2023-02-05T10:45:12.257Z,1027.43
2023-02-05T10:46:12.247Z,1027.48
2023-02-05T10:47:12.237Z,1027.46
2023-02-05T10:48:12.236Z,1027.46
2023-02-05T10:49:12.212Z,1027.43
2023-02-05T10:50:12.206Z,1027.40
2023-02-05T10:51:12.194Z,1027.45
2023-02-05T10:52:12.198Z,1027.38
2023-02-05T10:53:12.176Z,1027.50
2023-02-05T10:54:12.166Z,1027.46
2023-02-05T10:55:12.157Z,1027.43
2023-02-05T10:56:12.141Z,1027.43
2023-02-05T10:57:12.141Z,1027.48
2023-02-05T10:58:12.139Z,1027.47
2023-02-05T10:59:12.130Z,1027.41
2023-02-05T11:00:12.138Z,1027.46
2023-02-05T11:01:12.103Z,1027.47
2023-02-05T11:02:12.091Z,1027.47
2023-02-05T11:03:12.083Z,1027.49
2023-02-05T11:04:12.078Z,1027.51
2023-02-05T11:05:12.067Z,1027.45
2023-02-05T11:06:12.054Z,1027.47
2023-02-05T11:07:12.040Z,1027.43
2023-02-05T11:08:12.038Z,1027.48
2023-02-05T11:09:12.033Z,1027.40
2023-02-05T11:10:12.015Z,1027.40
2023-02-05T11:11:12.006Z,1027.40
2023-02-05T11:12:12.013Z,1027.45
2023-02-05T11:13:11.988Z,1027.40
2023-02-05T11:14:11.985Z,1027.41
2023-02-05T11:15:11.965Z,1027.43
2023-02-05T11:16:11.989Z,1027.42
2023-02-05T11:17:11.953Z,1027.45
2023-02-05T11:18:11.939Z,1027.48
2023-02-05T11:19:13.965Z,1027.47
2023-02-05T11:20:11.922Z,1027.45
2023-02-05T11:21:11.915Z,1027.44
2023-02-05T11:22:11.902Z,1027.47
2023-02-05T11:23:11.914Z,1027.51
2023-02-05T11:24:11.891Z,1027.42
2023-02-05T11:25:11.871Z,1027.50
2023-02-05T11:26:11.862Z,1027.48
2023-02-05T11:27:11.853Z,1027.47
2023-02-05T11:28:11.878Z,1027.50
2023-02-05T11:29:11.826Z,1027.49
2023-02-05T11:30:11.835Z,1027.55
2023-02-05T11:31:11.912Z,1027.50
2023-02-05T11:32:13.749Z,1027.48
2023-02-05T11:33:11.800Z,1027.47
2023-02-05T11:34:11.797Z,1027.49
2023-02-05T11:35:11.783Z,1027.50
2023-02-05T11:36:11.766Z,1027.46
2023-02-05T11:37:11.763Z,1027.48
2023-02-05T11:38:11.795Z,1027.46
2023-02-05T11:39:11.754Z,1027.48
2023-02-05T11:40:11.750Z,1027.43
2023-02-05T11:41:11.718Z,1027.46
2023-02-05T11:42:11.722Z,1027.43
2023-02-05T11:43:11.702Z,1027.46
2023-02-05T11:44:11.704Z,1027.45
2023-02-05T11:45:11.691Z,1027.39
2023-02-05T11:46:11.698Z,1027.41
2023-02-05T11:47:11.667Z,1027.42
2023-02-05T11:48:11.661Z,1027.39
2023-02-05T11:49:11.648Z,1027.36
2023-02-05T11:50:11.640Z,1027.36
2023-02-05T11:51:11.627Z,1027.39
2023-02-05T11:52:11.614Z,1027.35
2023-02-05T11:53:11.609Z,1027.35
2023-02-05T11:54:11.603Z,1027.33
2023-02-05T11:55:11.607Z,1027.35
2023-02-05T11:56:11.599Z,1027.37
2023-02-05T11:57:11.580Z,1027.36
2023-02-05T11:58:11.567Z,1027.31
2023-02-05T11:59:11.564Z,1027.36
2023-02-05T12:00:11.552Z,1027.36
2023-02-05T12:01:11.543Z,1027.34
2023-02-05T12:02:11.615Z,1027.33
2023-02-05T12:03:11.563Z,1027.31
2023-02-05T12:04:11.519Z,1027.28
2023-02-05T12:05:11.507Z,1027.25